Weather at Saint Barthélemy - Rémy de Haenen Airport

Public forecast

Using degrees Celsius for public forecast. Weather courtesy of forecast.io.

Closest aviation weather report (METAR) to Saint Barthélemy - Rémy de Haenen Airport

Report is more than 6 hours old.

Closest report is Princess Juliana International Airport, 17.2 nm (31.9 km) WNW.

2022/11/14 15:00 (retrieved 2 years ago)

TNCM 141500Z 09011KT 060V120 9999 FEW016 29/24 Q1017 NOSIG

Closest aviation forecast (TAF) to Saint Barthélemy - Rémy de Haenen Airport

Forecast is more than 12 hours old.

Closest forecast is Princess Juliana International Airport, 17.2 nm (31.9 km) WNW.

2023/02/22 12:27 (retrieved 1 year ago)

TAF TNCM 221010Z 2212/2312 06012KT 9999 SCT018